AIC358 VOBL-VOHS
Flight info
| Callsign | AIC358 |
|---|---|
| Flight time | 0h 46m |
| Altitude | 33000 |
| Route | LATID8A LATID Q22 SAKRO SARKA8 |
| Aircraft | A20N/M-SDE2E3FGHIRWXY/LB1 |
Departure
| Time | 2026-04-21 13:15 |
|---|---|
| Airport | Kempegowda International Airport Bengaluru (VOBL) |
Arrival
| Time | 2026-04-21 14:02 |
|---|---|
| Airport | Rajiv Gandhi International Airport (VOHS) |
| Time | Latitude | Longitude | Altitude | Speed | Heading |
|---|---|---|---|---|---|
| 2026-04-21 12:37 | 13.20174 | 77.70074 | 2972 ft | 0 kts | 180° |
| 2026-04-21 13:01 | 13.20173 | 77.70074 | 2971 ft | 0 kts | 180° |
| 2026-04-21 13:01 | 13.20182 | 77.70074 | 2972 ft | 2 kts | 180° |
| 2026-04-21 13:01 | 13.20197 | 77.70075 | 2973 ft | 2 kts | 181° |
| 2026-04-21 13:01 | 13.20213 | 77.70075 | 2974 ft | 2 kts | 180° |
| 2026-04-21 13:02 | 13.20228 | 77.70076 | 2974 ft | 2 kts | 200° |
| 2026-04-21 13:02 | 13.20240 | 77.70084 | 2975 ft | 2 kts | 231° |
| 2026-04-21 13:02 | 13.20247 | 77.70104 | 2976 ft | 1 kts | 273° |
| 2026-04-21 13:03 | 13.20247 | 77.70107 | 2976 ft | 0 kts | 270° |
| 2026-04-21 13:06 | 13.20247 | 77.70105 | 2976 ft | 1 kts | 270° |
| 2026-04-21 13:06 | 13.20247 | 77.70080 | 2975 ft | 6 kts | 272° |
| 2026-04-21 13:07 | 13.20248 | 77.70018 | 2974 ft | 11 kts | 268° |
| 2026-04-21 13:07 | 13.20249 | 77.69929 | 2974 ft | 13 kts | 272° |
| 2026-04-21 13:07 | 13.20250 | 77.69824 | 2972 ft | 16 kts | 271° |
| 2026-04-21 13:07 | 13.20253 | 77.69704 | 2973 ft | 16 kts | 270° |
| 2026-04-21 13:08 | 13.20253 | 77.69585 | 2977 ft | 15 kts | 269° |
| 2026-04-21 13:08 | 13.20254 | 77.69479 | 2981 ft | 14 kts | 270° |
| 2026-04-21 13:08 | 13.20255 | 77.69384 | 2984 ft | 12 kts | 272° |
| 2026-04-21 13:09 | 13.20347 | 77.69332 | 2989 ft | 4 kts | 359° |
| 2026-04-21 13:09 | 13.20387 | 77.69333 | 2990 ft | 6 kts | 2° |
| 2026-04-21 13:09 | 13.20471 | 77.69334 | 2992 ft | 11 kts | 360° |
| 2026-04-21 13:10 | 13.20522 | 77.69330 | 2993 ft | 9 kts | 333° |
| 2026-04-21 13:10 | 13.20541 | 77.69270 | 2996 ft | 10 kts | 269° |
| 2026-04-21 13:10 | 13.20541 | 77.69186 | 2997 ft | 13 kts | 270° |
| 2026-04-21 13:10 | 13.20541 | 77.69077 | 2999 ft | 16 kts | 268° |
| 2026-04-21 13:11 | 13.20543 | 77.68954 | 3001 ft | 18 kts | 271° |
| 2026-04-21 13:11 | 13.20544 | 77.68813 | 3002 ft | 20 kts | 272° |
| 2026-04-21 13:11 | 13.20544 | 77.68675 | 3004 ft | 10 kts | 271° |
| 2026-04-21 13:11 | 13.20563 | 77.68626 | 3004 ft | 0 kts | 327° |
| 2026-04-21 13:12 | 13.20563 | 77.68625 | 3004 ft | 0 kts | 328° |
| 2026-04-21 13:13 | 13.20574 | 77.68620 | 3004 ft | 3 kts | 341° |
| 2026-04-21 13:13 | 13.20613 | 77.68617 | 3004 ft | 7 kts | 2° |
| 2026-04-21 13:14 | 13.20681 | 77.68623 | 3004 ft | 10 kts | 15° |
| 2026-04-21 13:14 | 13.20715 | 77.68660 | 3004 ft | 2 kts | 87° |
| 2026-04-21 13:14 | 13.20715 | 77.68789 | 3004 ft | 47 kts | 90° |
| 2026-04-21 13:14 | 13.20711 | 77.69361 | 2997 ft | 111 kts | 91° |
| 2026-04-21 13:15 | 13.20704 | 77.70340 | 2983 ft | 162 kts | 89° |
| 2026-04-21 13:15 | 13.20715 | 77.71561 | 3353 ft | 173 kts | 89° |
| 2026-04-21 13:15 | 13.20766 | 77.72810 | 3881 ft | 180 kts | 79° |
| 2026-04-21 13:15 | 13.21304 | 77.73937 | 4550 ft | 179 kts | 57° |
| 2026-04-21 13:16 | 13.22032 | 77.74962 | 5108 ft | 184 kts | 57° |
| 2026-04-21 13:16 | 13.22779 | 77.76088 | 5509 ft | 195 kts | 59° |
| 2026-04-21 13:16 | 13.23511 | 77.77307 | 5738 ft | 207 kts | 62° |
| 2026-04-21 13:16 | 13.24253 | 77.78623 | 5972 ft | 220 kts | 63° |
| 2026-04-21 13:17 | 13.25029 | 77.80050 | 6119 ft | 240 kts | 63° |
| 2026-04-21 13:17 | 13.25873 | 77.81614 | 6399 ft | 255 kts | 60° |
| 2026-04-21 13:17 | 13.27134 | 77.82968 | 6673 ft | 275 kts | 32° |
| 2026-04-21 13:17 | 13.28969 | 77.83543 | 7214 ft | 285 kts | 6° |
| 2026-04-21 13:18 | 13.30969 | 77.83529 | 7869 ft | 288 kts | 357° |
| 2026-04-21 13:18 | 13.32946 | 77.83091 | 8537 ft | 293 kts | 341° |
| 2026-04-21 13:18 | 13.34786 | 77.82188 | 9260 ft | 295 kts | 336° |
| 2026-04-21 13:18 | 13.36737 | 77.81609 | 9949 ft | 292 kts | 2° |
| 2026-04-21 13:19 | 13.38746 | 77.81930 | 10657 ft | 293 kts | 14° |
| 2026-04-21 13:19 | 13.40790 | 77.82401 | 11038 ft | 310 kts | 13° |
| 2026-04-21 13:19 | 13.42962 | 77.82832 | 11456 ft | 325 kts | 11° |
| 2026-04-21 13:19 | 13.45237 | 77.83207 | 12156 ft | 329 kts | 9° |
| 2026-04-21 13:20 | 13.47513 | 77.83534 | 12940 ft | 331 kts | 8° |
| 2026-04-21 13:20 | 13.49818 | 77.83836 | 13523 ft | 334 kts | 8° |
| 2026-04-21 13:20 | 13.52136 | 77.84122 | 13867 ft | 336 kts | 7° |
| 2026-04-21 13:20 | 13.54483 | 77.84401 | 13980 ft | 337 kts | 7° |
| 2026-04-21 13:21 | 13.56821 | 77.84671 | 13979 ft | 338 kts | 7° |
| 2026-04-21 13:21 | 13.59171 | 77.84938 | 13978 ft | 338 kts | 7° |
| 2026-04-21 13:21 | 13.61514 | 77.85203 | 13978 ft | 338 kts | 7° |
| 2026-04-21 13:21 | 13.63901 | 77.85472 | 13973 ft | 339 kts | 7° |
| 2026-04-21 13:22 | 13.66237 | 77.85735 | 13972 ft | 339 kts | 7° |
| 2026-04-21 13:22 | 13.68620 | 77.86002 | 14142 ft | 345 kts | 7° |
| 2026-04-21 13:22 | 13.71024 | 77.86272 | 14821 ft | 347 kts | 7° |
| 2026-04-21 13:22 | 13.73442 | 77.86546 | 15541 ft | 348 kts | 7° |
| 2026-04-21 13:23 | 13.75837 | 77.86816 | 16128 ft | 352 kts | 6° |
| 2026-04-21 13:23 | 13.78297 | 77.87093 | 16682 ft | 357 kts | 6° |
| 2026-04-21 13:23 | 13.81628 | 77.87467 | 17414 ft | 362 kts | 6° |
| 2026-04-21 13:23 | 13.83308 | 77.87656 | 17767 ft | 366 kts | 6° |
| 2026-04-21 13:24 | 13.85889 | 77.87942 | 18295 ft | 370 kts | 6° |
| 2026-04-21 13:24 | 13.88472 | 77.88232 | 18830 ft | 374 kts | 5° |
| 2026-04-21 13:24 | 13.91085 | 77.88525 | 19347 ft | 379 kts | 5° |
| 2026-04-21 13:24 | 13.93725 | 77.88821 | 19860 ft | 383 kts | 5° |
| 2026-04-21 13:25 | 13.96419 | 77.89123 | 20377 ft | 387 kts | 5° |
| 2026-04-21 13:25 | 13.99103 | 77.89424 | 20878 ft | 391 kts | 5° |
| 2026-04-21 13:25 | 14.01805 | 77.89727 | 21370 ft | 395 kts | 5° |
| 2026-04-21 13:25 | 14.04567 | 77.90037 | 21859 ft | 399 kts | 5° |
| 2026-04-21 13:26 | 14.07362 | 77.90351 | 22338 ft | 403 kts | 5° |
| 2026-04-21 13:26 | 14.10193 | 77.90669 | 22836 ft | 406 kts | 5° |
| 2026-04-21 13:26 | 14.13000 | 77.90984 | 23302 ft | 410 kts | 5° |
| 2026-04-21 13:26 | 14.15879 | 77.91306 | 23766 ft | 414 kts | 4° |
| 2026-04-21 13:27 | 14.18779 | 77.91631 | 24201 ft | 418 kts | 4° |
| 2026-04-21 13:27 | 14.21738 | 77.91964 | 24621 ft | 422 kts | 4° |
| 2026-04-21 13:27 | 14.24661 | 77.92292 | 25047 ft | 426 kts | 4° |
| 2026-04-21 13:27 | 14.27624 | 77.92625 | 25467 ft | 430 kts | 4° |
| 2026-04-21 13:28 | 14.30634 | 77.92963 | 25872 ft | 433 kts | 4° |
| 2026-04-21 13:28 | 14.33633 | 77.93301 | 26250 ft | 437 kts | 4° |
| 2026-04-21 13:28 | 14.36666 | 77.93641 | 26634 ft | 441 kts | 3° |
| 2026-04-21 13:28 | 14.39767 | 77.93989 | 27106 ft | 442 kts | 3° |
| 2026-04-21 13:29 | 14.42850 | 77.94337 | 27661 ft | 441 kts | 3° |
| 2026-04-21 13:29 | 14.46906 | 77.94799 | 28457 ft | 438 kts | 3° |
| 2026-04-21 13:29 | 14.49925 | 77.95251 | 28988 ft | 438 kts | 5° |
| 2026-04-21 13:29 | 14.51958 | 77.95591 | 29304 ft | 439 kts | 5° |
| 2026-04-21 13:30 | 14.54983 | 77.96106 | 29789 ft | 439 kts | 6° |
| 2026-04-21 13:30 | 14.57988 | 77.96622 | 30308 ft | 437 kts | 6° |
| 2026-04-21 13:30 | 14.61008 | 77.97137 | 30756 ft | 438 kts | 6° |
| 2026-04-21 13:30 | 14.64008 | 77.97647 | 31170 ft | 439 kts | 6° |
| 2026-04-21 13:31 | 14.67051 | 77.98163 | 31518 ft | 441 kts | 6° |
| 2026-04-21 13:31 | 14.70109 | 77.98680 | 31851 ft | 444 kts | 6° |
| 2026-04-21 13:31 | 14.73185 | 77.99200 | 32164 ft | 447 kts | 6° |
| 2026-04-21 13:31 | 14.76272 | 77.99721 | 32459 ft | 450 kts | 6° |
| 2026-04-21 13:32 | 14.79387 | 78.00248 | 32736 ft | 454 kts | 6° |
| 2026-04-21 13:32 | 14.82520 | 78.00779 | 32774 ft | 456 kts | 6° |
| 2026-04-21 13:32 | 14.88820 | 78.01849 | 32793 ft | 457 kts | 6° |
| 2026-04-21 13:33 | 14.95142 | 78.02923 | 32790 ft | 457 kts | 6° |
| 2026-04-21 13:33 | 15.01428 | 78.03989 | 32791 ft | 458 kts | 6° |
| 2026-04-21 13:34 | 15.07747 | 78.05061 | 32798 ft | 458 kts | 6° |
| 2026-04-21 13:34 | 15.14094 | 78.06137 | 32800 ft | 458 kts | 6° |
| 2026-04-21 13:35 | 15.20373 | 78.07201 | 32811 ft | 458 kts | 6° |
| 2026-04-21 13:35 | 15.26646 | 78.08265 | 32815 ft | 458 kts | 6° |
| 2026-04-21 13:36 | 15.32976 | 78.09340 | 32817 ft | 456 kts | 6° |
| 2026-04-21 13:36 | 15.39235 | 78.10394 | 32502 ft | 453 kts | 5° |
| 2026-04-21 13:37 | 15.42345 | 78.10902 | 32248 ft | 449 kts | 5° |
| 2026-04-21 13:37 | 15.45425 | 78.11405 | 31968 ft | 445 kts | 5° |
| 2026-04-21 13:37 | 15.48494 | 78.11907 | 31655 ft | 442 kts | 5° |
| 2026-04-21 13:37 | 15.51541 | 78.12404 | 31270 ft | 440 kts | 5° |
| 2026-04-21 13:38 | 15.54546 | 78.12894 | 30846 ft | 438 kts | 5° |
| 2026-04-21 13:38 | 15.57565 | 78.13386 | 30423 ft | 436 kts | 5° |
| 2026-04-21 13:38 | 15.60591 | 78.13879 | 29969 ft | 434 kts | 5° |
| 2026-04-21 13:38 | 15.63563 | 78.14365 | 29527 ft | 433 kts | 4° |
| 2026-04-21 13:39 | 15.66558 | 78.14857 | 29080 ft | 431 kts | 4° |
| 2026-04-21 13:39 | 15.69547 | 78.15344 | 28652 ft | 429 kts | 4° |
| 2026-04-21 13:39 | 15.72470 | 78.15820 | 28199 ft | 429 kts | 4° |
| 2026-04-21 13:39 | 15.75459 | 78.16306 | 27655 ft | 430 kts | 5° |
| 2026-04-21 13:40 | 15.78406 | 78.16785 | 27084 ft | 430 kts | 5° |
| 2026-04-21 13:40 | 15.81407 | 78.17275 | 26525 ft | 430 kts | 5° |
| 2026-04-21 13:40 | 15.85351 | 78.17919 | 25782 ft | 429 kts | 6° |
| 2026-04-21 13:40 | 15.87312 | 78.18240 | 25426 ft | 428 kts | 6° |
| 2026-04-21 13:41 | 15.90256 | 78.18724 | 24846 ft | 429 kts | 6° |
| 2026-04-21 13:41 | 15.93205 | 78.19207 | 24422 ft | 424 kts | 6° |
| 2026-04-21 13:41 | 15.96148 | 78.19691 | 24008 ft | 419 kts | 6° |
| 2026-04-21 13:41 | 15.99003 | 78.20160 | 23574 ft | 416 kts | 6° |
| 2026-04-21 13:42 | 16.01879 | 78.20631 | 23126 ft | 412 kts | 7° |
| 2026-04-21 13:42 | 16.04708 | 78.21094 | 22700 ft | 408 kts | 7° |
| 2026-04-21 13:42 | 16.07498 | 78.21552 | 22299 ft | 405 kts | 7° |
| 2026-04-21 13:42 | 16.10300 | 78.22013 | 21882 ft | 401 kts | 7° |
| 2026-04-21 13:43 | 16.13037 | 78.22463 | 21464 ft | 398 kts | 7° |
| 2026-04-21 13:43 | 16.15768 | 78.22910 | 21048 ft | 395 kts | 7° |
| 2026-04-21 13:43 | 16.18478 | 78.23355 | 20645 ft | 391 kts | 7° |
| 2026-04-21 13:43 | 16.22064 | 78.23943 | 20118 ft | 387 kts | 8° |
| 2026-04-21 13:44 | 16.23813 | 78.24229 | 19854 ft | 385 kts | 8° |
| 2026-04-21 13:44 | 16.26462 | 78.24663 | 19444 ft | 382 kts | 8° |
| 2026-04-21 13:44 | 16.29088 | 78.25092 | 19037 ft | 379 kts | 8° |
| 2026-04-21 13:44 | 16.31695 | 78.25519 | 18617 ft | 376 kts | 8° |
| 2026-04-21 13:45 | 16.34294 | 78.25944 | 18199 ft | 373 kts | 8° |
| 2026-04-21 13:45 | 16.36862 | 78.26366 | 17786 ft | 370 kts | 8° |
| 2026-04-21 13:45 | 16.39405 | 78.26783 | 17381 ft | 367 kts | 9° |
| 2026-04-21 13:45 | 16.41930 | 78.27196 | 16979 ft | 364 kts | 9° |
| 2026-04-21 13:46 | 16.44468 | 78.27615 | 16570 ft | 362 kts | 9° |
| 2026-04-21 13:46 | 16.46931 | 78.28020 | 16173 ft | 359 kts | 9° |
| 2026-04-21 13:46 | 16.49385 | 78.28424 | 15768 ft | 356 kts | 9° |
| 2026-04-21 13:46 | 16.51868 | 78.28831 | 15374 ft | 352 kts | 9° |
| 2026-04-21 13:47 | 16.54284 | 78.29228 | 14985 ft | 350 kts | 9° |
| 2026-04-21 13:47 | 16.56669 | 78.29620 | 14605 ft | 346 kts | 9° |
| 2026-04-21 13:47 | 16.59085 | 78.30019 | 14230 ft | 343 kts | 8° |
| 2026-04-21 13:47 | 16.61439 | 78.30409 | 13851 ft | 340 kts | 8° |
| 2026-04-21 13:48 | 16.63776 | 78.30795 | 13464 ft | 338 kts | 8° |
| 2026-04-21 13:48 | 16.66035 | 78.31168 | 13061 ft | 336 kts | 8° |
| 2026-04-21 13:48 | 16.68374 | 78.31554 | 12657 ft | 333 kts | 8° |
| 2026-04-21 13:48 | 16.70672 | 78.31934 | 12258 ft | 330 kts | 9° |
| 2026-04-21 13:49 | 16.72920 | 78.32304 | 11862 ft | 328 kts | 9° |
| 2026-04-21 13:49 | 16.75215 | 78.32684 | 11464 ft | 326 kts | 9° |
| 2026-04-21 13:49 | 16.77435 | 78.33051 | 11082 ft | 323 kts | 9° |
| 2026-04-21 13:49 | 16.79665 | 78.33420 | 10691 ft | 321 kts | 9° |
| 2026-04-21 13:50 | 16.81881 | 78.33787 | 10302 ft | 319 kts | 9° |
| 2026-04-21 13:50 | 16.84061 | 78.34148 | 10035 ft | 312 kts | 9° |
| 2026-04-21 13:50 | 16.86163 | 78.34496 | 9972 ft | 297 kts | 9° |
| 2026-04-21 13:50 | 16.88190 | 78.34832 | 9811 ft | 288 kts | 8° |
| 2026-04-21 13:51 | 16.90165 | 78.35152 | 9509 ft | 285 kts | 7° |
| 2026-04-21 13:51 | 16.92149 | 78.35294 | 9204 ft | 282 kts | 360° |
| 2026-04-21 13:51 | 16.94098 | 78.35186 | 8887 ft | 279 kts | 353° |
| 2026-04-21 13:51 | 16.96003 | 78.34844 | 8576 ft | 277 kts | 348° |
| 2026-04-21 13:52 | 16.97892 | 78.34465 | 8275 ft | 275 kts | 351° |
| 2026-04-21 13:52 | 16.99812 | 78.34231 | 7973 ft | 273 kts | 354° |
| 2026-04-21 13:52 | 17.01712 | 78.34043 | 7655 ft | 271 kts | 354° |
| 2026-04-21 13:52 | 17.03584 | 78.33870 | 7366 ft | 270 kts | 355° |
| 2026-04-21 13:53 | 17.05449 | 78.33703 | 7148 ft | 263 kts | 355° |
| 2026-04-21 13:53 | 17.07245 | 78.33543 | 7103 ft | 248 kts | 355° |
| 2026-04-21 13:53 | 17.08936 | 78.33393 | 7066 ft | 235 kts | 355° |
| 2026-04-21 13:53 | 17.10542 | 78.33252 | 7053 ft | 234 kts | 355° |
| 2026-04-21 13:54 | 17.12180 | 78.33091 | 6920 ft | 235 kts | 349° |
| 2026-04-21 13:54 | 17.13635 | 78.32355 | 6587 ft | 235 kts | 312° |
| 2026-04-21 13:54 | 17.14309 | 78.30827 | 6305 ft | 236 kts | 274° |
| 2026-04-21 13:54 | 17.14221 | 78.29120 | 6048 ft | 236 kts | 266° |
| 2026-04-21 13:55 | 17.14103 | 78.27409 | 5750 ft | 237 kts | 268° |
| 2026-04-21 13:55 | 17.14028 | 78.25677 | 5440 ft | 237 kts | 270° |
| 2026-04-21 13:55 | 17.14293 | 78.24013 | 5124 ft | 233 kts | 302° |
| 2026-04-21 13:55 | 17.15460 | 78.22910 | 4857 ft | 225 kts | 342° |
| 2026-04-21 13:56 | 17.16981 | 78.22603 | 4633 ft | 220 kts | 353° |
| 2026-04-21 13:56 | 17.18493 | 78.22375 | 4353 ft | 219 kts | 351° |
| 2026-04-21 13:56 | 17.20003 | 78.22057 | 4062 ft | 219 kts | 348° |
| 2026-04-21 13:56 | 17.21502 | 78.21698 | 3741 ft | 220 kts | 354° |
| 2026-04-21 13:57 | 17.22943 | 78.21952 | 3586 ft | 206 kts | 35° |
| 2026-04-21 13:57 | 17.23764 | 78.23055 | 3649 ft | 188 kts | 74° |
| 2026-04-21 13:57 | 17.23702 | 78.24342 | 3597 ft | 171 kts | 103° |
| 2026-04-21 13:57 | 17.23362 | 78.25485 | 3551 ft | 156 kts | 107° |
| 2026-04-21 13:58 | 17.23035 | 78.26562 | 3561 ft | 154 kts | 103° |
| 2026-04-21 13:58 | 17.22834 | 78.27662 | 3570 ft | 154 kts | 96° |
| 2026-04-21 13:58 | 17.22745 | 78.28782 | 3571 ft | 153 kts | 92° |
| 2026-04-21 13:58 | 17.22719 | 78.29893 | 3572 ft | 154 kts | 89° |
| 2026-04-21 13:59 | 17.22719 | 78.31022 | 3572 ft | 154 kts | 89° |
| 2026-04-21 13:59 | 17.22731 | 78.32140 | 3575 ft | 154 kts | 89° |
| 2026-04-21 13:59 | 17.22747 | 78.33262 | 3383 ft | 153 kts | 89° |
| 2026-04-21 13:59 | 17.22763 | 78.34345 | 3190 ft | 143 kts | 88° |
| 2026-04-21 14:00 | 17.22778 | 78.35378 | 3015 ft | 141 kts | 89° |
| 2026-04-21 14:00 | 17.22793 | 78.36398 | 2847 ft | 141 kts | 89° |
| 2026-04-21 14:00 | 17.22808 | 78.37433 | 2672 ft | 140 kts | 90° |
| 2026-04-21 14:00 | 17.22824 | 78.38460 | 2495 ft | 141 kts | 90° |
| 2026-04-21 14:01 | 17.22838 | 78.39472 | 2319 ft | 141 kts | 91° |
| 2026-04-21 14:01 | 17.22857 | 78.40501 | 2146 ft | 141 kts | 89° |
| 2026-04-21 14:01 | 17.22875 | 78.41535 | 1989 ft | 141 kts | 89° |
| 2026-04-21 14:01 | 17.22874 | 78.42447 | 1981 ft | 104 kts | 88° |
| 2026-04-21 14:02 | 17.22879 | 78.42989 | 2002 ft | 42 kts | 93° |
| 2026-04-21 14:02 | 17.22882 | 78.43222 | 2009 ft | 29 kts | 89° |
| 2026-04-21 14:02 | 17.22908 | 78.43416 | 2016 ft | 23 kts | 63° |
| 2026-04-21 14:03 | 17.23044 | 78.43645 | 2025 ft | 15 kts | 60° |
| 2026-04-21 14:03 | 17.23126 | 78.43703 | 2026 ft | 17 kts | 357° |
| 2026-04-21 14:03 | 17.23263 | 78.43700 | 2023 ft | 21 kts | 359° |
| 2026-04-21 14:03 | 17.23387 | 78.43636 | 2018 ft | 14 kts | 348° |
| 2026-04-21 14:04 | 17.23474 | 78.43599 | 2014 ft | 16 kts | 281° |
| 2026-04-21 14:04 | 17.23537 | 78.43585 | 2011 ft | 12 kts | 31° |
| 2026-04-21 14:04 | 17.23618 | 78.43614 | 2010 ft | 10 kts | 358° |
| 2026-04-21 14:04 | 17.23643 | 78.43554 | 2007 ft | 13 kts | 269° |
| 2026-04-21 14:05 | 17.23639 | 78.43438 | 2005 ft | 17 kts | 268° |
| 2026-04-21 14:05 | 17.23637 | 78.43301 | 2002 ft | 15 kts | 269° |
| 2026-04-21 14:05 | 17.23637 | 78.43195 | 2000 ft | 7 kts | 269° |
| 2026-04-21 14:05 | 17.23636 | 78.43140 | 1999 ft | 6 kts | 269° |
| 2026-04-21 14:06 | 17.23613 | 78.43121 | 2000 ft | 5 kts | 178° |
| 2026-04-21 14:06 | 17.23574 | 78.43122 | 2001 ft | 3 kts | 179° |
| 2026-04-21 14:06 | 17.23572 | 78.43122 | 2001 ft | 0 kts | 177° |